Bei Facebook empfehlenBei Twitter postenGoogle plusPinterest

Das Wetter im Erzgebirge am 16.06.2015

Wetter und Klima am 16.06.2015 Holzhau im Erzgebirge (630m ü.NN)
Letzte gemessene Temperatur und Uhrzeit der Messung23:45:00 Uhr7.60 °C
Temperatur (Maximum / Höchstwert) und Uhrzeit der Messung16:30:00 Uhr17.90 °C
Temperatur (Minimum / Tiefstwert) und Uhrzeit der Messung06:00:002.10 °C
Errechneter Absolutwert der Temperaturschwankungen zwischen Tmin und Tmax des Tages15.80 K
Errechnete Tagesmitteltemperatur10.71042 °C
Gesamt - Niederschlag des Tages (in flüssiger Form)0.00 Liter / m²
Luftdruck (Maximum / Höchstwert) und Zeitpunkt der Messung23:45:00 Uhr1020.40 hPa
Luftdruck (Minimum / Tiefstwert) und Zeitpunkt der Messung00:00:00 Uhr1017.70 hPa
Errechneter Absolutwert der Luftdruckschwankungen des Tages2.70 hPa
Höchste gemessene Windgeschwindigkeit und Uhrzeit der Messung23:45:00 Uhr0.00 km/h
Errechnete Windhäufigkeit in Relation zu den Messwerten des Tages0.00000 %
Niedrigste Windkühle (Windchill) und Zeitpunkt der Messung06:00:00 Uhr2.10 °C
Taupunkt (Maximum / Höchstwert) und Uhrzeit der Messung07:45:00 Uhr9.50 °C
Taupunkt (Minimum / Tiefstwert) und Uhrzeit der Messung06:00:000.80 °C
Anzahl der automatisch eingelesenen Messwerte 96

Detaillierte Wetter- und Klima- Messwerte für den 16.06.2015 in Holzhau im Erzgebirge (630m ü.NN)
ZeitTemperaturLuftdruckRel. LuftfeuchteWindWindrichtungWindchillTaupunktNiederschlag l/m²
23:45:007.60 °C1020.40 hPa76.00 %3.60 °C 
23:30:007.80 °C1020.20 hPa76.00 %3.80 °C 
23:15:007.80 °C1020.00 hPa76.00 %3.80 °C 
23:00:007.70 °C1020.20 hPa76.00 %3.70 °C 
22:45:007.60 °C1020.10 hPa74.00 %3.30 °C 
22:30:007.80 °C1019.80 hPa73.00 %3.30 °C 
22:15:007.90 °C1019.70 hPa72.00 %3.20 °C 
22:00:008.20 °C1019.70 hPa71.00 %3.30 °C 
21:45:008.40 °C1019.60 hPa69.00 %3.10 °C 
21:30:008.90 °C1019.60 hPa67.00 %3.10 °C 
21:15:009.60 °C1019.20 hPa66.00 %3.60 °C 
21:00:0010.10 °C1019.20 hPa65.00 %3.80 °C 
20:45:0010.60 °C1019.20 hPa64.00 %4.10 °C 
20:30:0010.90 °C1019.10 hPa64.00 %4.40 °C 
20:15:0011.40 °C1019.00 hPa64.00 %4.80 °C 
20:00:0012.10 °C1018.70 hPa63.00 %5.30 °C 
19:45:0012.90 °C1018.70 hPa62.00 %5.80 °C 
19:30:0013.20 °C1018.40 hPa61.00 %5.90 °C 
19:15:0013.50 °C1018.40 hPa60.00 %5.90 °C 
19:00:0013.60 °C1018.30 hPa60.00 %6.00 °C 
18:45:0013.90 °C1018.40 hPa60.00 %6.30 °C 
18:30:0013.90 °C1018.50 hPa60.00 %6.30 °C 
18:15:0014.40 °C1018.50 hPa58.00 %6.30 °C 
18:00:0014.70 °C1018.40 hPa57.00 %6.30 °C 
17:45:0015.30 °C1018.30 hPa56.00 %6.60 °C 
17:30:0015.80 °C1018.20 hPa56.00 %7.00 °C 
17:15:0016.00 °C1018.40 hPa54.00 %6.70 °C 
17:00:0016.50 °C1018.40 hPa53.00 %6.90 °C 
16:45:0017.50 °C1018.30 hPa53.00 %7.80 °C 
16:30:0017.90 °C1018.40 hPa52.00 %7.90 °C 
16:15:0017.10 °C1018.30 hPa53.00 %7.50 °C 
16:00:0016.60 °C1018.30 hPa54.00 %7.30 °C 
15:45:0016.20 °C1018.50 hPa55.00 %7.20 °C 
15:30:0016.70 °C1018.50 hPa54.00 %7.40 °C 
15:15:0016.20 °C1018.60 hPa56.00 %7.40 °C 
15:00:0015.50 °C1018.70 hPa56.00 %6.80 °C 
14:45:0016.80 °C1018.60 hPa52.00 %6.90 °C 
14:30:0017.40 °C1018.60 hPa51.00 %7.20 °C 
14:15:0017.20 °C1018.50 hPa52.00 %7.30 °C 
14:00:0017.20 °C1018.60 hPa53.00 %7.50 °C 
13:45:0017.10 °C1018.60 hPa53.00 %7.50 °C 
13:30:0017.10 °C1018.60 hPa52.00 %7.20 °C 
13:15:0017.10 °C1018.80 hPa54.00 %7.70 °C 
13:00:0015.90 °C1018.80 hPa53.00 %6.30 °C 
12:45:0016.50 °C1018.90 hPa53.00 %6.90 °C 
12:30:0016.40 °C1018.90 hPa54.00 %7.10 °C 
12:15:0016.40 °C1019.00 hPa55.00 %7.30 °C 
12:00:0016.70 °C1019.20 hPa57.00 %8.10 °C 
11:45:0016.30 °C1019.00 hPa56.00 %7.50 °C 
11:30:0016.30 °C1019.20 hPa54.00 %7.00 °C 
11:15:0015.90 °C1019.00 hPa58.00 %7.70 °C 
11:00:0014.90 °C1019.00 hPa59.00 %7.00 °C 
10:45:0016.10 °C1019.00 hPa58.00 %7.80 °C 
10:30:0015.00 °C1018.90 hPa60.00 %7.30 °C 
10:15:0013.90 °C1018.90 hPa63.00 %7.00 °C 
10:00:0013.30 °C1018.70 hPa62.00 %6.20 °C 
09:45:0013.30 °C1018.70 hPa63.00 %6.40 °C 
09:30:0014.20 °C1018.70 hPa62.00 %7.00 °C 
09:15:0015.30 °C1018.70 hPa64.00 %8.50 °C 
09:00:0015.30 °C1018.90 hPa65.00 %8.80 °C 
08:45:0015.30 °C1018.80 hPa67.00 %9.20 °C 
08:30:0014.50 °C1018.90 hPa68.00 %8.70 °C 
08:15:0014.10 °C1018.90 hPa69.00 %8.50 °C 
08:00:0013.90 °C1018.80 hPa72.00 %8.90 °C 
07:45:0012.90 °C1019.00 hPa80.00 %9.50 °C 
07:30:0010.90 °C1019.00 hPa87.00 %8.80 °C 
07:15:007.90 °C1018.90 hPa92.00 %6.70 °C 
07:00:004.30 °C1018.80 hPa92.00 %3.10 °C 
06:45:003.50 °C1019.00 hPa92.00 %2.30 °C 
06:30:002.80 °C1019.10 hPa92.00 %1.60 °C 
06:15:002.30 °C1018.80 hPa91.00 %1.00 °C 
06:00:002.10 °C1018.70 hPa91.00 %0.80 °C 
05:45:002.10 °C1018.70 hPa91.00 %0.80 °C 
05:30:002.10 °C1018.70 hPa91.00 %0.80 °C 
05:15:002.40 °C1018.50 hPa91.00 %1.10 °C 
05:00:002.40 °C1018.60 hPa91.00 %1.10 °C 
04:45:002.40 °C1018.40 hPa91.00 %1.10 °C 
04:30:002.40 °C1018.40 hPa90.00 %0.90 °C 
04:15:002.40 °C1018.30 hPa90.00 %0.90 °C 
04:00:002.60 °C1018.20 hPa91.00 %1.30 °C 
03:45:002.90 °C1018.40 hPa91.00 %1.60 °C 
03:30:002.90 °C1018.30 hPa90.00 %1.40 °C 
03:15:003.00 °C1018.10 hPa90.00 %1.50 °C 
03:00:003.20 °C1018.00 hPa90.00 %1.70 °C 
02:45:003.40 °C1018.20 hPa89.00 %1.80 °C 
02:30:003.60 °C1018.20 hPa89.00 %2.00 °C 
02:15:003.90 °C1018.10 hPa89.00 %2.30 °C 
02:00:004.30 °C1018.10 hPa89.00 %2.70 °C 
01:45:004.40 °C1018.10 hPa89.00 %2.80 °C 
01:30:004.50 °C1018.10 hPa88.00 %2.70 °C 
01:15:004.80 °C1018.00 hPa88.00 %3.00 °C 
01:00:005.20 °C1018.10 hPa87.00 %3.20 °C 
00:45:005.60 °C1018.00 hPa87.00 %3.60 °C 
00:30:006.00 °C1017.90 hPa87.00 %4.00 °C 
00:15:006.50 °C1017.80 hPa86.00 %4.30 °C 
00:00:007.30 °C1017.70 hPa85.00 %5.00 °C 

Permanenter Link zu dieser Seite: Wetter im Erzgebirge am 16.06.2015
Performance-Info: Die Erstellung der Seite / Statistik(en) / Tabelle(n) erforderte 5 Datenbankserver-Abfrage(n) und dauerte 123 Millisekunden. (Dieser Messwert ist von der Gesamt-Auslastung des Servers abhängig.)
Erzgebirge - Wetter | Erzgebirge - Wetter (Mobilgeräte) | Komplette Klimadatenbank